Time;durP1;ratioP1;P1;durP2;ratioP2;P2;SDS_P1;SDS_P2;PMS_P1;PMS_P2;Temp;Humidity;BMP_temperature;BMP_pressure;BME280_temperature;BME280_humidity;BME280_pressure;Samples;Min_cycle;Max_cycle;Signal;HPM_P1;HPM_P2
2022/03/30 00:00:03;;;;;;;16.70;9.53;;;15.30;1.00;;;;;;5059671;28;21367;-79
2022/03/30 00:02:31;;;;;;;14.40;9.63;;;15.40;1.00;;;;;;5059657;28;20509;-77
2022/03/30 00:05:00;;;;;;;16.50;10.47;;;15.50;1.00;;;;;;5065715;28;20458;-77
2022/03/30 00:07:31;;;;;;;17.77;10.27;;;15.40;1.00;;;;;;5067613;28;20458;-78
2022/03/30 00:10:02;;;;;;;13.60;8.90;;;15.20;1.00;;;;;;5062101;28;20502;-79
2022/03/30 00:12:30;;;;;;;13.30;9.83;;;15.20;1.00;;;;;;5059975;28;20450;-79
2022/03/30 00:14:58;;;;;;;17.13;10.50;;;15.30;1.00;;;;;;5066652;28;20453;-78
2022/03/30 00:17:27;;;;;;;15.70;10.40;;;15.40;1.00;;;;;;5061403;28;20824;-79
2022/03/30 00:19:56;;;;;;;15.83;10.60;;;15.30;1.00;;;;;;5063890;28;20497;-79
2022/03/30 00:22:24;;;;;;;18.40;10.63;;;15.20;1.00;;;;;;5056386;28;20818;-80
2022/03/30 00:24:53;;;;;;;14.67;9.60;;;15.20;1.00;;;;;;5063328;28;20492;-77
2022/03/30 00:27:22;;;;;;;16.20;10.30;;;15.30;1.00;;;;;;5055638;28;20468;-80
2022/03/30 00:29:51;;;;;;;16.83;10.30;;;15.20;1.00;;;;;;5061761;28;21024;-79
2022/03/30 00:32:19;;;;;;;17.73;10.50;;;15.20;1.00;;;;;;5061625;28;20466;-79
2022/03/30 00:34:47;;;;;;;16.40;10.20;;;15.20;1.00;;;;;;5065220;28;20454;-78
2022/03/30 00:37:16;;;;;;;20.63;10.83;;;15.30;1.00;;;;;;5059155;28;20464;-78
2022/03/30 00:39:44;;;;;;;19.43;10.77;;;15.20;1.00;;;;;;5056350;28;20860;-78
2022/03/30 00:42:16;;;;;;;14.20;9.67;;;15.40;1.00;;;;;;5059763;28;20461;-78
2022/03/30 00:44:46;;;;;;;15.47;9.60;;;15.40;1.00;;;;;;5058434;28;20442;-78
2022/03/30 00:47:15;;;;;;;19.67;9.67;;;15.50;1.00;;;;;;5058931;28;20459;-77
2022/03/30 00:49:44;;;;;;;16.53;11.67;;;15.40;1.00;;;;;;5055888;28;20471;-80
2022/03/30 00:52:13;;;;;;;18.30;9.83;;;15.40;1.00;;;;;;5064276;28;20458;-79
2022/03/30 00:54:43;;;;;;;15.17;9.10;;;15.40;1.00;;;;;;5066550;28;20550;-78
2022/03/30 00:57:13;;;;;;;16.40;9.27;;;15.50;1.00;;;;;;5059713;28;20450;-77
2022/03/30 00:59:42;;;;;;;20.67;10.40;;;15.40;1.00;;;;;;5065921;28;20532;-79
2022/03/30 01:02:12;;;;;;;15.40;10.00;;;15.40;1.00;;;;;;5063136;28;20464;-77
2022/03/30 01:04:40;;;;;;;15.03;9.27;;;15.40;1.00;;;;;;5064926;28;20492;-78
2022/03/30 01:07:09;;;;;;;19.23;10.37;;;15.50;1.00;;;;;;5065729;28;20458;-79
2022/03/30 01:09:37;;;;;;;16.43;9.67;;;15.50;1.00;;;;;;5058284;28;20481;-79
2022/03/30 01:12:07;;;;;;;17.30;9.63;;;15.50;1.00;;;;;;5067323;28;20697;-78
2022/03/30 01:14:35;;;;;;;11.73;8.87;;;15.40;1.00;;;;;;5064066;28;20449;-80
2022/03/30 01:17:05;;;;;;;20.23;10.67;;;15.40;1.00;;;;;;5068056;28;20466;-79
2022/03/30 01:19:35;;;;;;;13.60;9.70;;;15.40;1.00;;;;;;5068970;28;21012;-78
2022/03/30 01:22:08;;;;;;;19.63;10.10;;;15.30;1.00;;;;;;5070023;28;20870;-78
2022/03/30 01:24:37;;;;;;;13.40;9.00;;;15.40;1.00;;;;;;5067764;28;20469;-79
2022/03/30 01:27:05;;;;;;;18.00;9.37;;;15.40;1.00;;;;;;5068071;28;20447;-80
2022/03/30 01:32:29;;;;;;;15.13;10.40;;;15.30;1.00;;;;;;5066104;28;20446;-78
2022/03/30 01:34:59;;;;;;;15.37;9.87;;;15.30;1.00;;;;;;5071501;28;20461;-81
2022/03/30 01:37:30;;;;;;;18.37;11.03;;;15.30;1.00;;;;;;5063727;28;20508;-78
2022/03/30 01:40:00;;;;;;;13.50;10.27;;;15.30;1.00;;;;;;5062776;28;20490;-77
2022/03/30 01:42:30;;;;;;;12.07;8.20;;;15.30;1.00;;;;;;5061485;28;20462;-78
2022/03/30 01:44:58;;;;;;;11.33;9.03;;;15.40;1.00;;;;;;5067666;28;20457;-81
2022/03/30 01:47:27;;;;;;;15.77;9.37;;;15.30;1.00;;;;;;5067495;28;20508;-79
2022/03/30 01:49:55;;;;;;;17.40;10.50;;;15.30;1.00;;;;;;5062610;28;20484;-78
2022/03/30 01:52:24;;;;;;;12.40;9.00;;;15.20;1.00;;;;;;5070645;28;20958;-82
2022/03/30 01:54:53;;;;;;;12.30;8.63;;;15.20;1.00;;;;;;5063198;28;20794;-80
2022/03/30 01:57:22;;;;;;;21.23;9.67;;;15.50;1.00;;;;;;5064849;28;20520;-79
2022/03/30 01:59:50;;;;;;;16.87;9.40;;;15.30;1.00;;;;;;5063789;28;20492;-75
2022/03/30 02:02:18;;;;;;;15.37;9.83;;;15.30;1.00;;;;;;5066085;28;20945;-78
2022/03/30 02:04:46;;;;;;;12.60;8.90;;;15.30;1.00;;;;;;5059314;28;20461;-78
2022/03/30 02:07:14;;;;;;;14.83;9.17;;;15.20;1.00;;;;;;5060377;28;20442;-79
2022/03/30 02:09:42;;;;;;;16.27;9.70;;;15.20;1.00;;;;;;5063553;28;21311;-77
2022/03/30 02:12:12;;;;;;;14.83;8.50;;;15.10;1.00;;;;;;5064219;28;20454;-79
2022/03/30 02:14:41;;;;;;;14.77;9.67;;;15.20;1.00;;;;;;5069115;28;20450;-77
2022/03/30 02:17:09;;;;;;;14.37;9.87;;;15.10;1.00;;;;;;5068758;28;20500;-78
2022/03/30 02:19:37;;;;;;;14.87;9.37;;;15.20;1.00;;;;;;5063362;28;20479;-78
2022/03/30 02:22:05;;;;;;;16.80;8.70;;;15.10;1.00;;;;;;5063510;28;20503;-78
2022/03/30 02:24:35;;;;;;;15.97;10.80;;;15.10;1.00;;;;;;5062256;28;21059;-79
2022/03/30 02:27:03;;;;;;;13.20;8.90;;;15.20;1.00;;;;;;5064833;28;21085;-80
2022/03/30 02:29:34;;;;;;;15.30;9.90;;;15.20;1.00;;;;;;5066138;28;20509;-79
2022/03/30 02:32:02;;;;;;;11.13;8.50;;;15.20;1.00;;;;;;5059740;28;20534;-79
2022/03/30 02:34:31;;;;;;;13.87;9.47;;;15.00;1.00;;;;;;5055137;28;20954;-79
2022/03/30 02:37:00;;;;;;;11.67;8.77;;;14.90;1.00;;;;;;5063256;28;20505;-78
2022/03/30 02:39:28;;;;;;;16.43;8.47;;;15.00;1.00;;;;;;5064153;28;21027;-80
2022/03/30 02:41:56;;;;;;;13.97;9.13;;;15.00;1.00;;;;;;5064080;28;20458;-77
2022/03/30 02:44:25;;;;;;;15.20;9.97;;;14.90;1.00;;;;;;5060781;28;20450;-79
2022/03/30 02:46:54;;;;;;;16.43;10.13;;;14.90;1.00;;;;;;5056102;28;21009;-79
2022/03/30 02:49:24;;;;;;;18.97;10.67;;;14.80;1.00;;;;;;5055526;28;20474;-76
2022/03/30 02:51:53;;;;;;;18.57;9.33;;;14.90;1.00;;;;;;5055960;28;20476;-79
2022/03/30 02:54:21;;;;;;;14.30;8.47;;;14.90;1.00;;;;;;5052392;28;20512;-79
2022/03/30 02:56:49;;;;;;;15.20;10.13;;;14.90;1.00;;;;;;5061856;28;20466;-77
2022/03/30 02:59:17;;;;;;;16.33;9.30;;;15.00;1.00;;;;;;5063634;28;20483;-78
2022/03/30 03:01:47;;;;;;;12.83;9.00;;;15.00;1.00;;;;;;5064320;28;20473;-79
2022/03/30 03:04:17;;;;;;;14.03;9.63;;;14.90;1.00;;;;;;5065987;28;20981;-78
2022/03/30 03:06:45;;;;;;;15.17;9.97;;;14.90;1.00;;;;;;5058943;28;20455;-79
2022/03/30 03:09:13;;;;;;;21.40;10.60;;;14.90;1.00;;;;;;5057478;28;20466;-79
2022/03/30 03:11:41;;;;;;;13.00;9.70;;;14.90;1.00;;;;;;5062145;28;20457;-78
2022/03/30 03:14:10;;;;;;;10.77;9.57;;;14.90;1.00;;;;;;5066028;28;20471;-78
2022/03/30 03:16:38;;;;;;;19.10;9.70;;;14.90;1.00;;;;;;5055177;28;20895;-77
2022/03/30 03:19:06;;;;;;;14.40;9.10;;;14.90;1.00;;;;;;5052575;28;20485;-79
2022/03/30 03:21:36;;;;;;;14.47;9.07;;;14.70;1.00;;;;;;5052620;28;20510;-77
2022/03/30 03:24:04;;;;;;;14.67;9.90;;;15.10;1.00;;;;;;5061163;28;20466;-78
2022/03/30 03:26:32;;;;;;;16.93;9.23;;;15.20;1.00;;;;;;5060741;28;20471;-79
2022/03/30 03:29:02;;;;;;;14.87;8.93;;;15.00;1.00;;;;;;5061459;28;20468;-78
2022/03/30 03:31:30;;;;;;;16.63;7.40;;;15.00;1.00;;;;;;5057340;28;20466;-78
2022/03/30 03:33:58;;;;;;;15.97;9.50;;;14.90;1.00;;;;;;5060319;28;20466;-76
2022/03/30 03:36:26;;;;;;;12.27;9.03;;;14.90;1.00;;;;;;5059235;28;20557;-77
2022/03/30 03:38:56;;;;;;;14.97;9.33;;;14.90;1.00;;;;;;5062491;28;20488;-77
2022/03/30 03:41:24;;;;;;;11.57;8.70;;;14.90;1.00;;;;;;5064010;28;20481;-77
2022/03/30 03:43:52;;;;;;;15.90;8.50;;;15.00;1.00;;;;;;5058497;28;20520;-77
2022/03/30 03:46:20;;;;;;;10.03;8.10;;;15.00;1.00;;;;;;5060855;28;20455;-78
2022/03/30 03:48:53;;;;;;;16.07;9.00;;;14.90;1.00;;;;;;5060585;28;20877;-79
2022/03/30 03:51:21;;;;;;;14.37;9.47;;;14.90;1.00;;;;;;5063084;28;20507;-77
2022/03/30 03:53:49;;;;;;;15.37;9.23;;;14.90;1.00;;;;;;5054823;28;20449;-77
2022/03/30 03:56:19;;;;;;;15.43;8.27;;;14.90;1.00;;;;;;5062239;28;20987;-78
2022/03/30 03:58:49;;;;;;;14.93;10.13;;;14.80;1.00;;;;;;5061725;28;20459;-78
2022/03/30 04:01:17;;;;;;;19.03;9.77;;;14.70;1.00;;;;;;5059248;28;20485;-80
2022/03/30 04:03:46;;;;;;;16.70;8.17;;;14.80;1.00;;;;;;5059891;28;21042;-79
2022/03/30 04:06:14;;;;;;;13.60;8.90;;;14.80;1.00;;;;;;5061833;28;20460;-77
2022/03/30 04:08:42;;;;;;;17.47;10.33;;;14.70;1.00;;;;;;5060916;28;20469;-77
2022/03/30 04:11:10;;;;;;;20.40;10.17;;;15.00;1.00;;;;;;5061690;28;20971;-75
2022/03/30 04:13:40;;;;;;;15.07;8.43;;;14.50;1.00;;;;;;5065083;28;20968;-77
2022/03/30 04:16:08;;;;;;;14.40;8.77;;;14.50;1.00;;;;;;5058860;28;20448;-77
2022/03/30 04:18:36;;;;;;;15.33;8.70;;;14.30;1.00;;;;;;5059034;28;20522;-81
2022/03/30 04:21:04;;;;;;;15.07;8.50;;;14.30;1.00;;;;;;5056198;28;20509;-78
2022/03/30 04:23:32;;;;;;;14.47;7.60;;;14.40;1.00;;;;;;5063656;28;20455;-77
2022/03/30 04:26:01;;;;;;;19.20;7.50;;;14.30;1.00;;;;;;5062811;28;20470;-76
2022/03/30 04:28:29;;;;;;;15.03;7.20;;;14.10;1.00;;;;;;5054706;28;20536;-76
2022/03/30 04:30:58;;;;;;;14.70;8.53;;;14.10;1.00;;;;;;5056411;28;20474;-76
2022/03/30 04:33:27;;;;;;;14.73;7.93;;;14.10;1.00;;;;;;5060638;28;20488;-79
2022/03/30 04:35:55;;;;;;;17.60;10.02;;;14.00;1.00;;;;;;5057243;28;20856;-77
2022/03/30 04:38:23;;;;;;;15.47;8.20;;;14.10;1.00;;;;;;5064663;28;20211;-77
2022/03/30 04:40:51;;;;;;;15.43;7.63;;;14.10;1.00;;;;;;5064415;28;20484;-76
2022/03/30 04:43:19;;;;;;;15.90;7.90;;;14.10;1.00;;;;;;5066316;28;20455;-79
2022/03/30 04:45:47;;;;;;;10.63;7.23;;;14.10;1.00;;;;;;5056683;28;20449;-78
2022/03/30 04:48:17;;;;;;;11.33;7.60;;;14.10;1.00;;;;;;5062755;28;20457;-76
2022/03/30 04:50:45;;;;;;;9.97;7.40;;;13.90;1.00;;;;;;5063600;28;20523;-76
2022/03/30 04:53:14;;;;;;;17.30;8.30;;;13.70;1.00;;;;;;5063333;28;20493;-77
2022/03/30 04:55:42;;;;;;;13.23;7.03;;;13.80;1.00;;;;;;5063683;28;20466;-78
2022/03/30 04:58:10;;;;;;;13.87;6.80;;;13.90;1.00;;;;;;5067489;28;20452;-78
2022/03/30 05:00:40;;;;;;;12.80;8.63;;;13.80;1.00;;;;;;5057124;28;20481;-79
2022/03/30 05:03:09;;;;;;;12.77;6.17;;;13.70;1.00;;;;;;5064665;28;20443;-76
2022/03/30 05:05:38;;;;;;;13.13;8.13;;;13.70;1.00;;;;;;5062787;28;20464;-79
2022/03/30 05:08:07;;;;;;;16.10;7.53;;;13.60;2.90;;;;;;5066506;28;20463;-77
2022/03/30 05:10:36;;;;;;;14.33;7.80;;;13.60;6.70;;;;;;5062667;28;20586;-79
2022/03/30 05:13:05;;;;;;;12.90;6.90;;;13.70;10.20;;;;;;5066325;28;20478;-77
2022/03/30 05:15:34;;;;;;;18.13;7.50;;;13.90;14.80;;;;;;5066011;28;20480;-78
2022/03/30 05:18:02;;;;;;;11.17;7.63;;;14.00;15.10;;;;;;5065441;28;20464;-78
2022/03/30 05:20:30;;;;;;;12.00;6.43;;;14.00;14.00;;;;;;5069056;28;20490;-81
2022/03/30 05:23:00;;;;;;;14.40;8.85;;;14.00;19.40;;;;;;5065941;28;20456;-78
2022/03/30 05:25:28;;;;;;;12.90;7.93;;;14.10;21.50;;;;;;5065340;28;20230;-78
2022/03/30 05:27:57;;;;;;;12.17;7.13;;;14.20;22.20;;;;;;5066983;28;21379;-78
2022/03/30 05:30:25;;;;;;;12.87;7.10;;;14.20;23.90;;;;;;5066504;28;20483;-77
2022/03/30 05:32:53;;;;;;;15.10;6.60;;;14.10;24.30;;;;;;5068792;28;20513;-81
2022/03/30 05:35:21;;;;;;;16.67;6.57;;;14.00;26.60;;;;;;5071290;28;20464;-78
2022/03/30 05:37:50;;;;;;;15.13;6.80;;;14.00;30.90;;;;;;5069143;28;20459;-78
2022/03/30 05:40:20;;;;;;;11.40;6.47;;;13.90;32.80;;;;;;5066635;28;20542;-77
2022/03/30 05:42:48;;;;;;;15.30;8.00;;;14.00;47.20;;;;;;5067540;28;20999;-81
2022/03/30 05:45:16;;;;;;;13.20;7.70;;;13.90;49.90;;;;;;5063789;28;20461;-77
2022/03/30 05:47:44;;;;;;;14.30;6.80;;;13.90;54.50;;;;;;5064631;28;20813;-79
2022/03/30 05:50:12;;;;;;;13.63;7.40;;;13.90;58.40;;;;;;5068234;28;20474;-77
2022/03/30 05:52:41;;;;;;;13.17;7.07;;;13.90;62.00;;;;;;5059863;28;20450;-81
2022/03/30 05:55:10;;;;;;;10.70;6.50;;;14.00;64.90;;;;;;5062407;28;20459;-79
2022/03/30 05:57:39;;;;;;;12.23;6.70;;;13.90;52.70;;;;;;5062152;28;20460;-78
2022/03/30 06:00:10;;;;;;;12.73;7.20;;;14.00;49.10;;;;;;5059000;28;21162;-78
2022/03/30 06:02:38;;;;;;;13.30;7.40;;;13.90;49.90;;;;;;5058910;28;20461;-78
2022/03/30 06:05:08;;;;;;;12.67;7.57;;;13.90;59.70;;;;;;5081081;28;20464;-77
2022/03/30 06:07:37;;;;;;;10.80;6.37;;;14.10;52.80;;;;;;5070429;28;20448;-80
2022/03/30 06:10:06;;;;;;;12.30;6.33;;;14.10;53.40;;;;;;5066466;28;20481;-77
2022/03/30 06:12:34;;;;;;;15.20;7.43;;;14.10;56.70;;;;;;5066087;28;20437;-79
2022/03/30 06:15:05;;;;;;;10.40;6.00;;;14.30;58.90;;;;;;5065950;28;20455;-78
2022/03/30 06:17:34;;;;;;;14.73;6.40;;;14.10;62.80;;;;;;5061870;28;20452;-78
2022/03/30 06:20:04;;;;;;;15.97;8.27;;;14.00;78.20;;;;;;5070794;28;20478;-78
2022/03/30 06:22:35;;;;;;;13.63;6.80;;;13.80;90.10;;;;;;5058071;28;20487;-78
2022/03/30 06:25:04;;;;;;;12.87;6.80;;;13.70;98.10;;;;;;5025482;28;1125712;-77
2022/03/30 06:27:33;;;;;;;18.13;7.80;;;13.70;99.90;;;;;;5057357;28;20469;-77
2022/03/30 06:30:01;;;;;;;23.07;10.83;;;13.60;99.90;;;;;;5062866;28;22233;-76
2022/03/30 06:32:31;;;;;;;11.87;8.10;;;13.60;99.90;;;;;;5070574;28;20987;-80
2022/03/30 06:34:59;;;;;;;9.33;7.23;;;13.60;99.90;;;;;;5067218;28;20444;-79
2022/03/30 06:37:27;;;;;;;16.60;7.97;;;13.60;99.90;;;;;;5069605;28;20460;-79
2022/03/30 06:39:55;;;;;;;12.73;7.20;;;13.50;99.90;;;;;;5065903;28;20463;-78
2022/03/30 06:42:23;;;;;;;18.50;8.47;;;13.30;99.90;;;;;;5062485;28;20472;-77
2022/03/30 06:44:52;;;;;;;13.13;7.20;;;13.30;99.90;;;;;;5061904;28;20451;-78
2022/03/30 06:47:20;;;;;;;14.37;7.73;;;13.40;99.90;;;;;;5071160;28;20461;-79
2022/03/30 06:49:49;;;;;;;13.73;7.27;;;13.40;99.90;;;;;;5069105;28;20470;-81
2022/03/30 06:52:17;;;;;;;13.17;8.87;;;13.70;99.90;;;;;;5083679;28;20441;-78
2022/03/30 06:54:46;;;;;;;14.67;7.77;;;13.10;99.90;;;;;;5059057;28;20448;-78
2022/03/30 06:57:14;;;;;;;13.47;8.17;;;13.00;99.90;;;;;;5068992;28;20456;-77
2022/03/30 06:59:42;;;;;;;12.37;7.03;;;13.00;99.90;;;;;;5061942;28;20527;-80
2022/03/30 07:02:10;;;;;;;12.53;7.43;;;13.10;99.90;;;;;;5067233;28;20520;-79
2022/03/30 07:04:39;;;;;;;17.77;7.50;;;13.10;99.90;;;;;;5066254;28;20452;-79
2022/03/30 07:10:18;;;;;;;20.07;6.70;;;13.30;99.90;;;;;;5026974;28;21180;-79
2022/03/30 07:12:50;;;;;;;10.37;6.53;;;13.40;99.90;;;;;;5060280;28;20533;-81
2022/03/30 07:15:19;;;;;;;11.50;6.03;;;13.50;99.90;;;;;;5071838;28;20456;-75
2022/03/30 07:17:49;;;;;;;14.07;7.53;;;13.40;99.90;;;;;;5067397;28;20451;-77
2022/03/30 07:20:19;;;;;;;14.77;7.37;;;13.50;99.90;;;;;;5064012;28;20470;-78
2022/03/30 07:22:50;;;;;;;15.47;6.50;;;13.50;99.90;;;;;;5063628;28;20461;-79
2022/03/30 07:25:19;;;;;;;22.33;8.70;;;13.40;99.90;;;;;;5061568;28;20997;-79
2022/03/30 07:27:50;;;;;;;13.83;9.43;;;13.30;99.90;;;;;;5081522;28;20827;-79
2022/03/30 07:30:19;;;;;;;15.87;6.87;;;13.30;99.90;;;;;;5063336;28;20497;-78
2022/03/30 07:32:50;;;;;;;13.33;7.17;;;13.40;99.90;;;;;;5063854;28;20453;-76
2022/03/30 07:35:20;;;;;;;18.73;7.80;;;13.20;99.90;;;;;;5059482;28;20489;-82
2022/03/30 07:37:50;;;;;;;16.57;6.80;;;13.00;99.90;;;;;;5066472;28;20458;-77
2022/03/30 07:40:21;;;;;;;16.97;7.07;;;13.10;99.90;;;;;;5063359;28;20513;-77
2022/03/30 07:42:51;;;;;;;12.63;6.30;;;13.10;99.90;;;;;;5063645;28;20999;-77
2022/03/30 07:45:20;;;;;;;10.50;5.80;;;13.20;99.90;;;;;;5063219;28;20467;-77
2022/03/30 07:47:48;;;;;;;11.03;5.50;;;13.30;99.90;;;;;;5058082;28;20598;-77
2022/03/30 07:50:17;;;;;;;16.40;5.70;;;12.80;99.90;;;;;;5068793;28;20499;-81
2022/03/30 07:52:46;;;;;;;13.03;6.80;;;12.70;99.90;;;;;;5063045;28;20447;-77
2022/03/30 07:55:16;;;;;;;19.50;8.30;;;12.80;99.90;;;;;;5064870;28;20500;-76
2022/03/30 07:57:44;;;;;;;16.87;6.70;;;12.80;99.90;;;;;;5062265;28;20462;-78
2022/03/30 08:00:16;;;;;;;15.70;6.93;;;12.70;99.90;;;;;;5063659;28;20547;-78
2022/03/30 08:02:45;;;;;;;11.60;6.23;;;12.80;99.90;;;;;;5064217;28;20475;-76
2022/03/30 08:05:14;;;;;;;10.70;5.50;;;13.00;99.90;;;;;;5058443;28;20505;-78
2022/03/30 08:07:45;;;;;;;9.97;5.50;;;13.00;99.90;;;;;;5060620;28;20459;-76
2022/03/30 08:10:15;;;;;;;16.10;6.27;;;13.10;99.90;;;;;;5064478;28;20543;-78
2022/03/30 08:12:44;;;;;;;12.43;5.37;;;13.20;99.90;;;;;;5067254;28;20451;-78
2022/03/30 08:15:13;;;;;;;12.67;6.30;;;13.30;99.90;;;;;;5062295;28;20455;-78
2022/03/30 08:17:42;;;;;;;11.73;5.53;;;13.40;99.90;;;;;;5071602;28;20514;-77
2022/03/30 08:22:25;;;;;;;15.93;6.57;;;13.40;99.90;;;;;;5057832;28;20484;-79
2022/03/30 08:22:59;;;;;;;10.40;5.50;;;13.30;99.90;;;;;;5064091;28;20480;-77
2022/03/30 08:25:30;;;;;;;14.80;8.60;;;13.30;99.90;;;;;;5063590;28;20485;-76
2022/03/30 08:27:58;;;;;;;9.20;5.13;;;13.30;99.90;;;;;;5069981;28;20447;-80
2022/03/30 08:30:27;;;;;;;14.73;6.57;;;13.20;99.90;;;;;;5062800;28;21072;-78
2022/03/30 08:32:55;;;;;;;10.13;5.40;;;13.30;99.90;;;;;;5063016;28;20443;-78
2022/03/30 08:35:25;;;;;;;13.27;7.07;;;13.40;99.90;;;;;;5061853;28;20460;-78
2022/03/30 08:37:54;;;;;;;15.53;7.40;;;13.40;99.90;;;;;;5059280;28;20927;-78
2022/03/30 08:40:23;;;;;;;15.80;7.13;;;13.40;99.90;;;;;;5066467;28;20475;-79
2022/03/30 08:42:54;;;;;;;10.73;6.00;;;13.40;99.90;;;;;;5067564;28;20801;-80
2022/03/30 08:45:24;;;;;;;11.57;6.00;;;13.60;99.90;;;;;;5064965;28;20452;-80
2022/03/30 08:47:52;;;;;;;13.82;7.72;;;13.70;99.90;;;;;;5058194;28;20446;-79
2022/03/30 08:50:21;;;;;;;13.80;8.20;;;13.70;99.90;;;;;;5064249;28;20223;-79
2022/03/30 08:52:52;;;;;;;9.10;5.33;;;13.50;99.90;;;;;;5061352;28;20503;-78
2022/03/30 08:55:20;;;;;;;15.80;6.13;;;13.40;99.90;;;;;;5057169;28;20448;-78
2022/03/30 08:57:49;;;;;;;17.43;6.57;;;13.50;99.90;;;;;;5063049;28;20449;-77
2022/03/30 09:00:20;;;;;;;11.03;7.03;;;13.60;99.90;;;;;;5066212;28;20938;-79
2022/03/30 09:02:55;;;;;;;11.43;6.17;;;13.60;99.90;;;;;;5060302;28;20563;-78
2022/03/30 09:05:25;;;;;;;12.50;6.23;;;13.50;99.90;;;;;;5059168;28;20455;-76
2022/03/30 09:08:07;;;;;;;16.03;7.20;;;13.50;99.90;;;;;;5066457;28;20449;-80
2022/03/30 09:10:36;;;;;;;9.27;5.27;;;13.60;99.90;;;;;;5059423;28;20857;-76
2022/03/30 09:13:06;;;;;;;10.03;5.53;;;13.60;99.90;;;;;;5062954;28;20446;-78
2022/03/30 09:15:39;;;;;;;5.70;4.70;;;13.50;99.90;;;;;;5066117;28;20448;-78
2022/03/30 09:18:09;;;;;;;8.03;4.97;;;13.50;99.90;;;;;;5066252;28;20874;-79
2022/03/30 09:20:40;;;;;;;10.50;6.07;;;13.50;99.90;;;;;;5069270;28;20993;-78
2022/03/30 09:23:10;;;;;;;7.37;5.10;;;13.60;99.90;;;;;;5066707;28;20459;-77
2022/03/30 09:25:47;;;;;;;12.13;5.80;;;13.50;99.90;;;;;;5063849;28;20496;-78
2022/03/30 09:28:17;;;;;;;13.97;5.77;;;13.50;99.90;;;;;;5062692;28;20453;-80
2022/03/30 09:30:48;;;;;;;12.93;4.77;;;13.40;99.90;;;;;;5062653;28;20472;-79
2022/03/30 09:33:18;;;;;;;8.60;5.00;;;13.50;99.90;;;;;;5063783;28;21248;-81
2022/03/30 09:35:47;;;;;;;14.37;6.30;;;13.60;99.90;;;;;;5067045;28;20968;-80
2022/03/30 09:38:17;;;;;;;8.07;4.93;;;13.70;99.90;;;;;;5072388;28;20448;-79
2022/03/30 09:40:47;;;;;;;11.30;5.93;;;13.70;99.90;;;;;;5069055;28;20474;-78
2022/03/30 09:43:19;;;;;;;12.53;7.20;;;13.60;99.90;;;;;;5069296;28;20459;-78
2022/03/30 09:45:51;;;;;;;13.15;6.72;;;13.60;99.90;;;;;;5066034;28;20678;-79
2022/03/30 09:48:22;;;;;;;10.13;5.80;;;13.80;99.90;;;;;;5067979;28;20190;-79
2022/03/30 09:50:52;;;;;;;14.93;5.50;;;13.90;99.90;;;;;;5070233;28;20469;-80
2022/03/30 09:53:22;;;;;;;8.40;5.30;;;13.80;99.90;;;;;;5064767;28;20442;-78
2022/03/30 09:56:00;;;;;;;13.63;6.30;;;13.80;99.90;;;;;;5067333;28;20440;-79
2022/03/30 09:58:30;;;;;;;11.57;5.67;;;13.90;99.90;;;;;;5071009;28;20518;-78
2022/03/30 10:01:16;;;;;;;9.07;5.50;;;13.90;99.90;;;;;;5065302;28;21025;-78
2022/03/30 10:03:49;;;;;;;17.07;6.13;;;14.00;99.90;;;;;;5067583;28;20480;-79
2022/03/30 10:06:20;;;;;;;8.83;5.00;;;14.10;99.90;;;;;;5069993;28;20781;-78
2022/03/30 10:08:49;;;;;;;11.97;7.03;;;14.10;99.90;;;;;;5068690;28;20456;-80
2022/03/30 10:11:20;;;;;;;14.33;5.83;;;14.10;99.90;;;;;;5068335;28;21006;-78
2022/03/30 10:13:50;;;;;;;7.43;4.63;;;13.90;99.90;;;;;;5066242;28;20444;-81
2022/03/30 10:16:39;;;;;;;13.90;6.00;;;13.90;99.90;;;;;;5064576;28;20560;-79
2022/03/30 10:19:08;;;;;;;9.80;4.97;;;13.60;99.90;;;;;;5064618;28;20459;-79
2022/03/30 10:21:44;;;;;;;12.10;5.30;;;13.40;99.90;;;;;;5070756;28;20456;-80
2022/03/30 10:24:38;;;;;;;8.30;5.17;;;13.50;99.90;;;;;;5063378;28;20480;-79
2022/03/30 10:27:13;;;;;;;5.57;3.40;;;13.60;99.90;;;;;;5071117;28;20535;-78
2022/03/30 10:29:50;;;;;;;9.40;4.73;;;13.80;99.90;;;;;;5066251;28;21332;-83
2022/03/30 10:32:21;;;;;;;12.53;4.77;;;13.90;99.90;;;;;;5064043;28;20468;-83
2022/03/30 10:35:00;;;;;;;7.20;4.53;;;14.00;99.90;;;;;;5064798;28;20454;-82
2022/03/30 10:37:30;;;;;;;11.67;4.63;;;13.90;99.90;;;;;;5069610;28;20449;-81
2022/03/30 10:40:08;;;;;;;5.57;4.13;;;13.90;99.90;;;;;;5068627;28;20468;-81
2022/03/30 10:43:16;;;;;;;12.27;5.70;;;14.00;99.90;;;;;;5063450;28;20455;-78
2022/03/30 10:45:50;;;;;;;15.50;7.57;;;14.00;99.90;;;;;;5060979;28;20830;-78
2022/03/30 10:48:22;;;;;;;7.90;4.50;;;14.20;99.90;;;;;;5062533;28;20455;-77
2022/03/30 10:50:55;;;;;;;9.53;4.57;;;14.10;99.90;;;;;;5066639;28;20480;-79
2022/03/30 10:53:42;;;;;;;8.60;4.93;;;14.10;99.90;;;;;;5062557;28;21011;-79
2022/03/30 10:56:36;;;;;;;7.10;4.10;;;14.00;99.90;;;;;;5067912;28;20454;-78
2022/03/30 10:59:12;;;;;;;9.80;4.47;;;13.90;99.90;;;;;;5083704;28;20462;-78
2022/03/30 11:01:41;;;;;;;9.63;4.73;;;14.00;99.90;;;;;;5054441;28;21011;-81
2022/03/30 11:04:26;;;;;;;10.47;4.60;;;14.20;99.90;;;;;;5059627;28;21094;-79
2022/03/30 11:07:39;;;;;;;5.77;3.50;;;14.50;99.90;;;;;;5065611;28;20986;-80
2022/03/30 11:10:25;;;;;;;11.87;4.43;;;14.50;99.90;;;;;;5084860;28;20475;-78
2022/03/30 11:13:02;;;;;;;7.70;4.53;;;14.50;99.90;;;;;;5065197;28;20458;-79
2022/03/30 11:15:30;;;;;;;7.90;3.83;;;14.30;99.90;;;;;;5061875;28;20453;-79
2022/03/30 11:18:18;;;;;;;7.27;5.03;;;14.50;99.90;;;;;;5070207;28;20583;-76
2022/03/30 11:21:16;;;;;;;8.20;4.23;;;14.60;99.90;;;;;;5069246;28;20505;-80
2022/03/30 11:24:13;;;;;;;5.03;4.00;;;14.60;99.90;;;;;;5069292;28;20457;-79
2022/03/30 11:27:18;;;;;;;10.10;4.60;;;14.70;99.90;;;;;;5068913;28;20456;-79
2022/03/30 11:30:14;;;;;;;7.90;4.10;;;14.80;99.90;;;;;;5036168;28;20577;-80
2022/03/30 11:33:00;;;;;;;7.50;5.00;;;14.80;99.90;;;;;;5068644;28;20459;-79
2022/03/30 11:35:36;;;;;;;8.40;5.30;;;14.90;99.90;;;;;;5065527;28;20444;-76
2022/03/30 11:38:37;;;;;;;7.37;5.40;;;14.80;99.90;;;;;;5060033;28;20441;-78
2022/03/30 11:41:08;;;;;;;9.00;5.67;;;14.80;99.90;;;;;;5056301;28;20474;-78
2022/03/30 11:46:26;;;;;;;11.17;5.73;;;14.70;99.90;;;;;;5064280;28;20450;-79
2022/03/30 11:48:59;;;;;;;9.37;5.70;;;14.70;99.90;;;;;;5065405;28;20454;-78
2022/03/30 11:51:28;;;;;;;12.00;5.10;;;14.70;99.90;;;;;;5068991;28;20525;-79
2022/03/30 11:54:15;;;;;;;9.30;5.40;;;14.70;99.90;;;;;;5065694;28;21242;-84
2022/03/30 11:56:44;;;;;;;14.60;6.30;;;14.70;99.90;;;;;;5064599;28;20492;-80
2022/03/30 11:59:13;;;;;;;11.30;6.23;;;14.70;99.90;;;;;;5065197;28;20484;-80
2022/03/30 12:01:44;;;;;;;12.40;5.20;;;14.70;99.90;;;;;;5063520;28;20441;-79
2022/03/30 12:04:14;;;;;;;12.50;6.57;;;14.60;99.90;;;;;;5062645;28;20461;-79
2022/03/30 12:06:46;;;;;;;8.17;5.40;;;14.60;99.90;;;;;;5069433;28;20492;-78
2022/03/30 12:09:17;;;;;;;8.70;6.57;;;14.70;99.90;;;;;;5072795;28;20463;-80
2022/03/30 12:11:46;;;;;;;5.77;5.17;;;14.70;99.90;;;;;;5072539;28;20579;-80
2022/03/30 12:14:25;;;;;;;11.40;6.57;;;14.70;99.90;;;;;;5060454;28;20455;-80
2022/03/30 12:16:54;;;;;;;11.77;6.40;;;14.70;99.90;;;;;;5068236;28;20448;-79
2022/03/30 12:19:22;;;;;;;10.23;6.00;;;14.70;99.90;;;;;;5060807;28;20479;-79
2022/03/30 12:21:50;;;;;;;9.50;7.57;;;14.70;99.90;;;;;;5070796;28;20936;-84
2022/03/30 12:24:22;;;;;;;10.27;7.10;;;14.80;99.90;;;;;;5069954;28;20456;-80
2022/03/30 12:26:52;;;;;;;11.10;7.23;;;14.80;99.90;;;;;;5060192;28;20448;-81
2022/03/30 12:29:21;;;;;;;9.50;6.60;;;14.80;99.90;;;;;;5061378;28;20470;-81
2022/03/30 12:31:53;;;;;;;11.40;7.40;;;14.90;99.90;;;;;;5061044;28;20457;-80
2022/03/30 12:34:24;;;;;;;13.63;7.60;;;14.90;99.90;;;;;;5058993;28;20987;-78
2022/03/30 12:36:54;;;;;;;10.40;6.90;;;14.90;99.90;;;;;;5059674;28;20883;-79
2022/03/30 12:39:26;;;;;;;14.80;8.73;;;14.90;99.90;;;;;;5058249;28;20476;-79
2022/03/30 12:42:00;;;;;;;12.80;9.47;;;14.80;99.90;;;;;;5061275;28;20487;-77
2022/03/30 12:44:30;;;;;;;9.60;7.27;;;14.80;99.90;;;;;;5066531;28;20540;-78
2022/03/30 12:47:01;;;;;;;6.90;4.93;;;14.60;99.90;;;;;;5060992;28;20486;-79
2022/03/30 12:49:36;;;;;;;3.00;2.70;;;14.50;99.90;;;;;;5065880;28;20478;-79
2022/03/30 12:52:10;;;;;;;3.33;2.23;;;14.50;99.90;;;;;;5062411;28;20828;-79
2022/03/30 12:54:40;;;;;;;2.20;2.00;;;14.30;99.90;;;;;;5064323;28;20449;-79
2022/03/30 12:57:09;;;;;;;2.53;1.90;;;14.30;99.90;;;;;;5064696;28;20454;-78
2022/03/30 12:59:41;;;;;;;2.90;2.40;;;14.30;99.90;;;;;;5061000;28;20510;-77
2022/03/30 13:02:21;;;;;;;2.53;2.33;;;14.20;99.90;;;;;;5073577;28;21194;-77
2022/03/30 13:04:54;;;;;;;3.03;1.77;;;14.20;99.90;;;;;;5079844;28;20514;-80
2022/03/30 13:07:25;;;;;;;4.10;2.00;;;14.20;99.90;;;;;;5084136;28;20441;-78